Lynn Marie — WDB6192 — position and weather

sailwx.info

Track history (hours):
 
Tides and Currents Weather Stations Pressure Air Temp Water Temp Dewpoint Dewpoint Depression Visibility Wind Speed Wind Dir Waves Ship Positions

Lynn Marie

Owner: Foss Maritime Co, Seattle, WA. More information available from US FCC via Universal Licensing System and Coast Guard Vessel Documentation Center.

Last reported at 2017-Nov-19 19:56 UTC. Time now 2017-Nov-19 20:04 UTC.
Position N 37°54' W 122°22'.

Length 30 m; draft 18 m.

Type: Tug. MMSI: 366919770.

Date/timePositionNaut miles runAvg speedWind from/ knotsBaromVisibWave heightAir tempDewpointWater temp
2017-Nov-19 19:56N 37°54' W 122°22'0 0.0
2017-Nov-19 19:29N 37°54' W 122°22'1 3.0
2017-Nov-19 19:00N 37°54' W 122°24'1 1.7
2017-Nov-19 18:26N 37°55' W 122°25'0 0.0
2017-Nov-19 17:59N 37°55' W 122°25'0 0.3
2017-Nov-19 17:30N 37°55' W 122°25'2 3.9
2017-Nov-19 17:00N 37°54' W 122°22'1 2.0
2017-Nov-19 16:30N 37°55' W 122°22'1 2.4
2017-Nov-19 16:00N 37°54' W 122°23'3 5.2
2017-Nov-19 15:30N 37°52' W 122°24'4 8.3
2017-Nov-19 15:01N 37°48' W 122°21'1 2.2
2017-Nov-19 14:31N 37°48' W 122°20'1 1.0
2017-Nov-19 14:00N 37°48' W 122°19'0 0.3
2017-Nov-19 13:30N 37°48' W 122°19'0 0.2
2017-Nov-19 13:00N 37°48' W 122°19'1 1.7
2017-Nov-19 12:31N 37°48' W 122°20'2 3.8
2017-Nov-19 12:00N 37°48' W 122°22'3 6.7
2017-Nov-19 11:31N 37°51' W 122°24'3 6.3
2017-Nov-19 11:00N 37°54' W 122°24'1 1.9
2017-Nov-19 10:29N 37°54' W 122°22'0 0.0
2017-Nov-19 09:59N 37°54' W 122°22'0 0.0
2017-Nov-19 09:29N 37°54' W 122°22'0 0.0
2017-Nov-19 08:59N 37°54' W 122°22'0 0.0
2017-Nov-19 08:29N 37°54' W 122°22'0 0.0
2017-Nov-19 07:56N 37°54' W 122°22'0 0.0
2017-Nov-19 07:20N 37°54' W 122°22'0 0.0
2017-Nov-19 06:56N 37°54' W 122°22'0 0.0
2017-Nov-19 06:29N 37°54' W 122°22'0 0.0
2017-Nov-19 05:59N 37°54' W 122°22'0 0.0
2017-Nov-19 05:29N 37°54' W 122°22'0 0.0
2017-Nov-19 04:38N 37°54' W 122°22'0 0.0
2017-Nov-19 04:20N 37°54' W 122°22'0 0.0
2017-Nov-19 03:59N 37°54' W 122°22'0 0.0
2017-Nov-19 03:30N 37°54' W 122°22'2 4.6
2017-Nov-19 03:01N 37°53' W 122°24'510.0
2017-Nov-19 02:31N 37°48' W 122°21'0 0.9
2017-Nov-19 02:01N 37°49' W 122°20'0 0.5
2017-Nov-19 01:31N 37°49' W 122°20'2 4.2
2017-Nov-19 01:00N 37°49' W 122°23'1 2.0
2017-Nov-19 00:30N 37°49' W 122°22'0 0.1
2017-Nov-19 00:00N 37°49' W 122°22'0 0.1
2017-Nov-18 23:30N 37°49' W 122°22'0 0.1
2017-Nov-18 23:00N 37°49' W 122°22'0 0.0
2017-Nov-18 22:30N 37°49' W 122°22'0 0.0
2017-Nov-18 22:00N 37°49' W 122°22'0 0.0
2017-Nov-18 21:30N 37°49' W 122°22'0 0.0
2017-Nov-18 21:00N 37°49' W 122°22'0 0.0
2017-Nov-18 20:30N 37°49' W 122°22'0 0.0
2017-Nov-18 19:57N 37°49' W 122°22'0 0.0
2017-Nov-18 19:30N 37°49' W 122°22'0 0.4
2017-Nov-18 19:00N 37°49' W 122°22'510.2
2017-Nov-18 18:30N 37°54' W 122°25'2 3.6
2017-Nov-18 18:01N 37°56' W 122°25'0 0.8
2017-Nov-18 17:30N 37°55' W 122°24'0 0.1
2017-Nov-18 16:57N 37°55' W 122°25'1 2.5
2017-Nov-18 16:30N 37°54' W 122°25'4 9.0
2017-Nov-18 16:01N 37°50' W 122°22'4 7.8
2017-Nov-18 15:30N 37°48' W 122°19'0 0.3
2017-Nov-18 15:01N 37°48' W 122°19'2 4.9
2017-Nov-18 14:31N 37°48' W 122°22'1 2.6
2017-Nov-18 14:00N 37°49' W 122°23'5 9.9
2017-Nov-18 13:31N 37°54' W 122°25'2 4.2
2017-Nov-18 13:00N 37°54' W 122°22'0 0.0
2017-Nov-18 12:30N 37°54' W 122°22'0 0.0
2017-Nov-18 12:00N 37°54' W 122°22'0 0.0
2017-Nov-18 11:30N 37°54' W 122°22'0 0.0
2017-Nov-18 11:00N 37°54' W 122°22'0 0.0
2017-Nov-18 10:30N 37°54' W 122°22'0 0.0
2017-Nov-18 10:00N 37°54' W 122°22'0 0.0
2017-Nov-18 09:24N 37°54' W 122°22'0 0.0
2017-Nov-18 09:00N 37°54' W 122°22'0 0.0
2017-Nov-18 08:27N 37°54' W 122°22'0 0.0
2017-Nov-18 08:00N 37°54' W 122°22'0 0.0
2017-Nov-18 07:30N 37°54' W 122°22'0 0.0
2017-Nov-18 07:00N 37°54' W 122°22'0 0.0
2017-Nov-18 06:30N 37°54' W 122°22'0 0.0
2017-Nov-18 06:00N 37°54' W 122°22'0 0.0
2017-Nov-18 05:27N 37°54' W 122°22'0 0.0
2017-Nov-18 05:00N 37°54' W 122°22'0 0.0
2017-Nov-18 04:30N 37°54' W 122°22'0 0.0
2017-Nov-18 03:57N 37°54' W 122°22'0 0.0
2017-Nov-18 03:30N 37°54' W 122°22'0 0.0
2017-Nov-18 03:00N 37°54' W 122°22'0 0.0
2017-Nov-18 02:30N 37°54' W 122°22'0 0.0
2017-Nov-18 01:57N 37°54' W 122°22'0 0.0
2017-Nov-18 01:30N 37°54' W 122°22'0 0.0
2017-Nov-18 01:00N 37°54' W 122°22'0 0.0
2017-Nov-18 00:30N 37°54' W 122°22'0 0.0
2017-Nov-18 00:00N 37°54' W 122°22'0 0.0
2017-Nov-17 23:27N 37°54' W 122°22'0 0.0
2017-Nov-17 22:51N 37°54' W 122°22'0 0.0
2017-Nov-17 22:27N 37°54' W 122°22'0 0.0
2017-Nov-17 21:51N 37°54' W 122°22'0 0.0
2017-Nov-17 21:30N 37°54' W 122°22'0 0.0
2017-Nov-17 21:00N 37°54' W 122°22'0 0.0
2017-Nov-17 20:30N 37°54' W 122°22'0 0.0
2017-Nov-17 20:00N 37°54' W 122°22'0 0.0
2017-Nov-17 19:27N 37°54' W 122°22'0 0.0
2017-Nov-17 19:00N 37°54' W 122°22'0 0.0
2017-Nov-17 18:30N 37°54' W 122°22'0 0.0
2017-Nov-17 17:57N 37°54' W 122°22'0 0.0
2017-Nov-17 17:30N 37°54' W 122°22'0 0.0
2017-Nov-17 17:00N 37°54' W 122°22'1 1.1
2017-Nov-17 16:30N 37°54' W 122°23'2 4.0
2017-Nov-17 16:01N 37°56' W 122°25'0 0.1
2017-Nov-17 15:30N 37°56' W 122°25'1 2.7
2017-Nov-17 15:00N 37°54' W 122°25'2 3.9
2017-Nov-17 14:31N 37°52' W 122°24'2 4.0
2017-Nov-17 14:00N 37°54' W 122°25'2 3.9
2017-Nov-17 13:27N 37°54' W 122°22'0 0.0
2017-Nov-17 12:57N 37°54' W 122°22'0 0.0
2017-Nov-17 12:30N 37°54' W 122°22'0 0.0
2017-Nov-17 12:00N 37°54' W 122°22'0 0.5
2017-Nov-17 11:30N 37°54' W 122°23'4 7.5
2017-Nov-17 11:00N 37°52' W 122°27'4 7.6
2017-Nov-17 10:30N 37°49' W 122°29'1 2.6
2017-Nov-17 10:00N 37°49' W 122°31'3 5.2
2017-Nov-17 09:30N 37°49' W 122°28'3 6.7
2017-Nov-17 09:00N 37°52' W 122°25'2 4.4
2017-Nov-17 08:30N 37°54' W 122°26'1 1.6
2017-Nov-17 08:00N 37°55' W 122°25'1 1.3
2017-Nov-17 07:21N 37°55' W 122°25'0 0.7
2017-Nov-17 07:00N 37°55' W 122°25'2 4.0
2017-Nov-17 06:28N 37°54' W 122°22'0 0.0
2017-Nov-17 05:58N 37°54' W 122°22'0 0.0
2017-Nov-17 05:28N 37°54' W 122°22'0 0.0
2017-Nov-17 04:58N 37°54' W 122°22'0 0.0
2017-Nov-17 04:28N 37°54' W 122°22'0 0.0
2017-Nov-17 03:49N 37°54' W 122°22'0 0.0
2017-Nov-17 03:19N 37°54' W 122°22'0 0.0
2017-Nov-17 02:55N 37°54' W 122°22'0 0.0
2017-Nov-17 02:25N 37°54' W 122°22'0 0.0
2017-Nov-17 01:58N 37°54' W 122°22'0 0.0
2017-Nov-17 01:25N 37°54' W 122°22'0 0.9
2017-Nov-17 01:00N 37°54' W 122°23'2 3.4
2017-Nov-17 00:30N 37°55' W 122°25'0 0.1
2017-Nov-17 00:00N 37°55' W 122°24'0 0.1
2017-Nov-16 23:30N 37°55' W 122°25'0 0.1
2017-Nov-16 23:00N 37°55' W 122°24'0 0.1
2017-Nov-16 22:27N 37°55' W 122°25'0 0.1
2017-Nov-16 22:00N 37°55' W 122°24'0 0.1
2017-Nov-16 21:30N 37°55' W 122°25'0 0.1
2017-Nov-16 20:57N 37°55' W 122°24'0 0.1
2017-Nov-16 20:30N 37°55' W 122°25'0 0.0
2017-Nov-16 19:58N 37°55' W 122°25'1 2.0
2017-Nov-16 19:30N 37°55' W 122°25'1 1.1
2017-Nov-16 18:37N 37°56' W 122°25'0 3.9
2017-Nov-16 18:30N 37°55' W 122°24'0 0.3
2017-Nov-16 17:58N 37°55' W 122°25'0 0.0
2017-Nov-16 17:25N 37°55' W 122°25'0 0.0
2017-Nov-16 16:58N 37°55' W 122°25'0 0.0
2017-Nov-16 16:16N 37°55' W 122°25'0 0.0
2017-Nov-16 15:58N 37°55' W 122°25'0 0.0
2017-Nov-16 15:22N 37°55' W 122°25'0 0.0
2017-Nov-16 14:43N 37°55' W 122°25'0 0.0
2017-Nov-16 14:25N 37°55' W 122°25'0 0.0
2017-Nov-16 13:52N 37°55' W 122°25'0 0.0
2017-Nov-16 13:28N 37°55' W 122°25'0 0.0
2017-Nov-16 12:58N 37°55' W 122°25'1 1.4
2017-Nov-16 12:30N 37°55' W 122°24'2 3.1
2017-Nov-16 11:56N 37°54' W 122°22'0 0.0
2017-Nov-16 11:29N 37°54' W 122°22'0 0.0
2017-Nov-16 10:56N 37°54' W 122°22'0 0.0
2017-Nov-16 10:26N 37°54' W 122°22'0 0.0
2017-Nov-16 09:59N 37°54' W 122°22'0 0.0
2017-Nov-16 09:30N 37°54' W 122°22'0 0.0
2017-Nov-16 08:56N 37°54' W 122°22'0 0.0
2017-Nov-16 08:27N 37°54' W 122°22'0 0.0
2017-Nov-16 07:59N 37°54' W 122°22'0 0.0
2017-Nov-16 07:30N 37°54' W 122°22'2 4.0
2017-Nov-16 07:00N 37°55' W 122°25'0 0.0
2017-Nov-16 06:25N 37°55' W 122°25'0 0.0
2017-Nov-16 05:55N 37°55' W 122°25'0 0.0
2017-Nov-16 05:25N 37°55' W 122°25'0 0.0
2017-Nov-16 04:55N 37°55' W 122°25'0 0.0
2017-Nov-16 04:25N 37°55' W 122°25'0 0.0
2017-Nov-16 03:58N 37°55' W 122°25'0 0.0
2017-Nov-16 03:25N 37°55' W 122°25'0 0.0
2017-Nov-16 02:58N 37°55' W 122°25'0 0.0
2017-Nov-16 02:19N 37°55' W 122°25'0 0.0
2017-Nov-16 01:58N 37°55' W 122°25'0 0.0
2017-Nov-16 01:28N 37°55' W 122°25'0 0.0
2017-Nov-16 00:58N 37°55' W 122°25'0 0.0
2017-Nov-16 00:25N 37°55' W 122°25'0 0.0
2017-Nov-15 23:58N 37°55' W 122°25'0 0.0
2017-Nov-15 23:28N 37°55' W 122°25'0 0.0
2017-Nov-15 22:58N 37°55' W 122°25'0 0.0
2017-Nov-15 22:30N 37°55' W 122°25'0 0.7
2017-Nov-15 21:50N 37°56' W 122°25'0 0.0
2017-Nov-15 21:30N 37°56' W 122°25'1 2.7
2017-Nov-15 21:00N 37°54' W 122°25'2 3.3
2017-Nov-15 20:30N 37°53' W 122°25'3 5.0
2017-Nov-15 19:58N 37°55' W 122°25'0 0.2
2017-Nov-15 19:30N 37°55' W 122°25'0 0.2
2017-Nov-15 18:59N 37°55' W 122°25'0 0.0
2017-Nov-15 18:30N 37°55' W 122°25'0 0.2
2017-Nov-15 18:00N 37°55' W 122°25'0 0.5
2017-Nov-15 17:27N 37°56' W 122°25'0 0.4
2017-Nov-15 17:00N 37°56' W 122°25'0 0.1
2017-Nov-15 16:30N 37°56' W 122°25'0 0.9
2017-Nov-15 16:01N 37°55' W 122°25'0 0.0
2017-Nov-15 15:31N 37°55' W 122°25'0 0.0
2017-Nov-15 14:43N 37°55' W 122°25'0 0.0
2017-Nov-15 14:25N 37°55' W 122°25'0 0.0
2017-Nov-15 13:16N 37°55' W 122°25'0 0.0
2017-Nov-15 13:01N 37°55' W 122°25'0 0.0
2017-Nov-15 12:22N 37°55' W 122°25'0 0.0
2017-Nov-15 11:52N 37°55' W 122°25'0 0.0
2017-Nov-15 11:28N 37°55' W 122°25'0 0.0
2017-Nov-15 10:49N 37°55' W 122°25'1 3.6
2017-Nov-15 10:30N 37°54' W 122°24'1 2.1
2017-Nov-15 10:00N 37°54' W 122°22'0 0.0
2017-Nov-15 09:24N 37°54' W 122°22'0 0.0
2017-Nov-15 09:00N 37°54' W 122°22'0 0.0
2017-Nov-15 08:30N 37°54' W 122°22'0 0.0
2017-Nov-15 08:00N 37°54' W 122°22'0 0.0
2017-Nov-15 07:30N 37°54' W 122°22'0 0.0
2017-Nov-15 07:00N 37°54' W 122°22'0 0.0
2017-Nov-15 06:30N 37°54' W 122°22'0 0.1
2017-Nov-15 06:00N 37°54' W 122°22'2 2.8
2017-Nov-15 05:17N 37°55' W 122°25'0 0.0
2017-Nov-15 04:59N 37°55' W 122°25'0 0.0
2017-Nov-15 04:26N 37°55' W 122°25'0 0.0
2017-Nov-15 03:47N 37°55' W 122°25'0 0.0
2017-Nov-15 03:23N 37°55' W 122°25'0 0.0
2017-Nov-15 02:59N 37°55' W 122°25'0 0.0
2017-Nov-15 02:29N 37°55' W 122°25'0 0.0
2017-Nov-15 01:39N 37°55' W 122°25'0 1.9
2017-Nov-15 01:30N 37°55' W 122°25'5 9.3
2017-Nov-15 01:00N 37°51' W 122°23'4 8.5
2017-Nov-15 00:30N 37°48' W 122°19'0 0.0
2017-Nov-15 00:00N 37°48' W 122°19'1 2.5
2017-Nov-14 23:30N 37°48' W 122°17'0 1.0
2017-Nov-14 23:00N 37°48' W 122°18'2 3.5
2017-Nov-14 22:30N 37°48' W 122°20'2 5.0
2017-Nov-14 22:00N 37°49' W 122°23'4 7.3
2017-Nov-14 21:30N 37°53' W 122°25'3 5.1
2017-Nov-14 21:00N 37°54' W 122°22'0 0.0
2017-Nov-14 20:30N 37°54' W 122°22'0 0.0
2017-Nov-14 20:00N 37°54' W 122°22'0 0.1
2017-Nov-14 19:28N 37°54' W 122°22'0 0.1
2017-Nov-14 18:55N 37°54' W 122°22'2 5.1
2017-Nov-14 18:30N 37°55' W 122°25'0 0.5
2017-Nov-14 18:00N 37°55' W 122°25'0 0.5
2017-Nov-14 17:30N 37°55' W 122°25'2 4.1
2017-Nov-14 17:00N 37°54' W 122°23'1 1.9
2017-Nov-14 16:30N 37°55' W 122°22'0 0.0
2017-Nov-14 16:00N 37°55' W 122°22'0 0.4
2017-Nov-14 15:30N 37°55' W 122°22'0 0.0
2017-Nov-14 15:00N 37°55' W 122°22'1 1.1
2017-Nov-14 14:30N 37°54' W 122°22'0 0.9
2017-Nov-14 14:00N 37°54' W 122°22'0 0.0
2017-Nov-14 13:30N 37°54' W 122°22'0 0.0
2017-Nov-14 13:00N 37°54' W 122°22'0 0.0
2017-Nov-14 12:30N 37°54' W 122°22'0 0.0
2017-Nov-14 12:00N 37°54' W 122°22'0 0.0
2017-Nov-14 11:31N 37°54' W 122°22'0 0.0
2017-Nov-14 11:01N 37°54' W 122°22'0 0.0
2017-Nov-14 10:30N 37°54' W 122°22'0 0.0
2017-Nov-14 10:00N 37°54' W 122°22'0 0.0
2017-Nov-14 09:31N 37°54' W 122°22'0 0.0
2017-Nov-14 09:00N 37°54' W 122°22'0 0.0
2017-Nov-14 08:30N 37°54' W 122°22'0 0.0
2017-Nov-14 08:00N 37°54' W 122°22'0 0.0
2017-Nov-14 07:30N 37°54' W 122°22'0 0.0
2017-Nov-14 07:00N 37°54' W 122°22'0 0.0
2017-Nov-14 06:30N 37°54' W 122°22'0 0.0
2017-Nov-14 06:00N 37°54' W 122°22'0 0.0
2017-Nov-14 05:30N 37°54' W 122°22'0 0.0
2017-Nov-14 05:01N 37°54' W 122°22'0 0.0
2017-Nov-14 04:30N 37°54' W 122°22'0 0.0
2017-Nov-14 04:00N 37°54' W 122°22'0 0.0
2017-Nov-14 03:31N 37°54' W 122°22'0 0.0
2017-Nov-14 03:00N 37°54' W 122°22'0 0.0
2017-Nov-14 02:30N 37°54' W 122°22'0 0.0
2017-Nov-14 02:00N 37°54' W 122°22'0 0.0
2017-Nov-14 01:30N 37°54' W 122°22'0 0.0
2017-Nov-14 01:00N 37°54' W 122°22'0 0.0
2017-Nov-14 00:30N 37°54' W 122°22'0 0.0
2017-Nov-14 00:00N 37°54' W 122°22'0 0.0
2017-Nov-13 23:30N 37°54' W 122°22'0 0.0
2017-Nov-13 23:00N 37°54' W 122°22'0 0.0
2017-Nov-13 22:30N 37°54' W 122°22'0 0.0
2017-Nov-13 22:00N 37°54' W 122°22'8 0.4
2017-Nov-13 02:01N 37°48' W 122°17'1 2.4
2017-Nov-13 01:31N 37°48' W 122°19'0 0.9
2017-Nov-13 01:00N 37°48' W 122°19'0 0.1
2017-Nov-13 00:30N 37°48' W 122°19'2 3.0
2017-Nov-13 00:01N 37°48' W 122°18'1 2.0
2017-Nov-12 23:30N 37°48' W 122°19'3 5.9
2017-Nov-12 23:00N 37°48' W 122°22'1 2.3
2017-Nov-12 22:30N 37°49' W 122°22'0 0.0
2017-Nov-12 22:00N 37°49' W 122°22'3 5.3
2017-Nov-12 21:30N 37°51' W 122°24'3 6.0
2017-Nov-12 21:00N 37°54' W 122°23'1 0.9
2017-Nov-12 20:25N 37°54' W 122°22'0 0.0
2017-Nov-12 19:58N 37°54' W 122°22'0 0.0
2017-Nov-12 19:25N 37°54' W 122°22'0 0.0
2017-Nov-12 18:58N 37°54' W 122°22'0 0.0
2017-Nov-12 18:28N 37°54' W 122°22'0 0.0
2017-Nov-12 17:55N 37°54' W 122°22'0 0.0
2017-Nov-12 17:28N 37°54' W 122°22'0 0.0
2017-Nov-12 16:58N 37°54' W 122°22'0 0.0
2017-Nov-12 16:28N 37°54' W 122°22'0 0.0
2017-Nov-12 15:58N 37°54' W 122°22'0 0.0
2017-Nov-12 15:25N 37°54' W 122°22'0 0.0
2017-Nov-12 14:55N 37°54' W 122°22'0 0.0
2017-Nov-12 14:28N 37°54' W 122°22'0 0.0
2017-Nov-12 13:58N 37°54' W 122°22'0 0.0
2017-Nov-12 13:28N 37°54' W 122°22'0 0.0
2017-Nov-12 12:58N 37°54' W 122°22'0 0.0
2017-Nov-12 12:28N 37°54' W 122°22'0 0.3
2017-Nov-12 12:00N 37°54' W 122°23'2 4.7
2017-Nov-12 11:29N 37°56' W 122°25'0 0.2
2017-Nov-12 11:00N 37°55' W 122°25'0 0.9
2017-Nov-12 10:30N 37°55' W 122°25'2 3.9
2017-Nov-12 09:59N 37°54' W 122°22'0 0.0
2017-Nov-12 09:27N 37°54' W 122°22'0 0.0
2017-Nov-12 08:56N 37°54' W 122°22'0 0.0
2017-Nov-12 08:29N 37°54' W 122°22'0 0.0
2017-Nov-12 07:57N 37°54' W 122°22'0 0.0
2017-Nov-12 07:29N 37°54' W 122°22'0 0.0
2017-Nov-12 06:57N 37°54' W 122°22'0 0.0
2017-Nov-12 06:29N 37°54' W 122°22'0 0.0
2017-Nov-12 05:59N 37°54' W 122°22'0 0.0
2017-Nov-12 05:29N 37°54' W 122°22'0 0.0
2017-Nov-12 04:59N 37°54' W 122°22'0 0.0
2017-Nov-12 04:21N 37°54' W 122°22'0 0.0
2017-Nov-12 03:59N 37°54' W 122°22'0 0.0
2017-Nov-12 03:26N 37°54' W 122°22'0 0.0
2017-Nov-12 02:56N 37°54' W 122°22'0 0.0
2017-Nov-12 02:26N 37°54' W 122°22'0 0.0
2017-Nov-12 01:59N 37°54' W 122°22'0 0.0
2017-Nov-12 01:14N 37°54' W 122°22'0 0.0
2017-Nov-12 00:59N 37°54' W 122°22'0 0.0
2017-Nov-12 00:29N 37°54' W 122°22'0 0.0
2017-Nov-11 23:59N 37°54' W 122°22'0 0.0
2017-Nov-11 23:26N 37°54' W 122°22'0 0.0
2017-Nov-11 22:59N 37°54' W 122°22'0 0.0
2017-Nov-11 22:29N 37°54' W 122°22'0 0.0
2017-Nov-11 21:56N 37°54' W 122°22'0 0.0
2017-Nov-11 21:26N 37°54' W 122°22'0 0.0
2017-Nov-11 20:56N 37°54' W 122°22'0 0.0
2017-Nov-11 20:26N 37°54' W 122°22'0 0.0
2017-Nov-11 19:53N 37°54' W 122°22'0 0.0
2017-Nov-11 19:29N 37°54' W 122°22'0 0.0
2017-Nov-11 18:56N 37°54' W 122°22'0 0.0
2017-Nov-11 18:26N 37°54' W 122°22'0 0.0
2017-Nov-11 17:56N 37°54' W 122°22'0 0.0
2017-Nov-11 17:26N 37°54' W 122°22'0 0.0
2017-Nov-11 16:57N 37°54' W 122°22'0 0.0
2017-Nov-11 16:23N 37°54' W 122°22'0 0.0
2017-Nov-11 15:56N 37°54' W 122°22'0 0.0
2017-Nov-11 15:29N 37°54' W 122°22'0 0.0
2017-Nov-11 14:59N 37°54' W 122°22'0 0.0
2017-Nov-11 14:29N 37°54' W 122°22'0 0.0
2017-Nov-11 13:56N 37°54' W 122°22'0 0.0
2017-Nov-11 13:29N 37°54' W 122°22'0 0.0
2017-Nov-11 12:56N 37°54' W 122°22'0 0.0
2017-Nov-11 12:29N 37°54' W 122°22'0 0.0
2017-Nov-11 11:59N 37°54' W 122°22'0 0.0
2017-Nov-11 11:27N 37°54' W 122°22'0 0.0
2017-Nov-11 10:57N 37°54' W 122°22'0 0.0
2017-Nov-11 10:27N 37°54' W 122°22'0 0.0
2017-Nov-11 09:59N 37°54' W 122°22'0 0.0
2017-Nov-11 09:29N 37°54' W 122°22'0 0.0
2017-Nov-11 09:00N 37°54' W 122°22'0 0.0
2017-Nov-11 08:30N 37°54' W 122°22'0 0.0
2017-Nov-11 07:56N 37°54' W 122°22'0 0.0
2017-Nov-11 07:29N 37°54' W 122°22'0 0.0
2017-Nov-11 06:59N 37°54' W 122°22'0 0.0
2017-Nov-11 06:29N 37°54' W 122°22'0 0.0
2017-Nov-11 05:59N 37°54' W 122°22'0 0.0
2017-Nov-11 05:26N 37°54' W 122°22'0 0.0
2017-Nov-11 04:56N 37°54' W 122°22'0 0.0
2017-Nov-11 04:26N 37°54' W 122°22'0 0.0
2017-Nov-11 03:56N 37°54' W 122°22'0 0.0
2017-Nov-11 03:29N 37°54' W 122°22'0 0.0
2017-Nov-11 02:56N 37°54' W 122°22'0 0.0
2017-Nov-11 02:17N 37°54' W 122°22'0 0.0
2017-Nov-11 01:53N 37°54' W 122°22'0 0.0
2017-Nov-11 01:29N 37°54' W 122°22'0 0.0
2017-Nov-11 00:59N 37°54' W 122°22'2 4.5
2017-Nov-11 00:30N 37°55' W 122°25'3 5.3
2017-Nov-11 00:00N 37°54' W 122°22'1 2.0
2017-Nov-10 23:30N 37°55' W 122°22'0 0.0
2017-Nov-10 23:01N 37°55' W 122°22'1 1.7
2017-Nov-10 22:30N 37°54' W 122°22'0 0.0
2017-Nov-10 21:57N 37°54' W 122°22'0 0.0
2017-Nov-10 21:30N 37°54' W 122°22'0 0.0
2017-Nov-10 20:57N 37°54' W 122°22'0 0.0
2017-Nov-10 20:24N 37°54' W 122°22'0 0.0
2017-Nov-10 19:54N 37°54' W 122°22'0 0.0
2017-Nov-10 19:27N 37°54' W 122°22'0 0.0
2017-Nov-10 19:00N 37°54' W 122°22'0 0.0
2017-Nov-10 18:30N 37°54' W 122°22'0 0.0
2017-Nov-10 17:57N 37°54' W 122°22'0 0.0
2017-Nov-10 17:30N 37°54' W 122°22'0 0.0
2017-Nov-10 16:57N 37°54' W 122°22'0 0.0
2017-Nov-10 16:30N 37°54' W 122°22'0 0.0
2017-Nov-10 16:00N 37°54' W 122°22'0 0.0
2017-Nov-10 15:27N 37°54' W 122°22'0 0.0
2017-Nov-10 15:00N 37°54' W 122°22'0 0.0
2017-Nov-10 14:30N 37°54' W 122°22'0 0.0
2017-Nov-10 14:00N 37°54' W 122°22'0 0.0
2017-Nov-10 13:21N 37°54' W 122°22'0 0.0
2017-Nov-10 12:57N 37°54' W 122°22'0 0.0
2017-Nov-10 12:27N 37°54' W 122°22'0 0.0
2017-Nov-10 12:00N 37°54' W 122°22'0 0.0
2017-Nov-10 11:27N 37°54' W 122°22'0 0.0
2017-Nov-10 11:00N 37°54' W 122°22'0 0.0
2017-Nov-10 10:21N 37°54' W 122°22'0 0.0
2017-Nov-10 09:45N 37°54' W 122°22'0 0.0
2017-Nov-10 09:27N 37°54' W 122°22'0 0.0
2017-Nov-10 08:54N 37°54' W 122°22'0 0.0
2017-Nov-10 08:03N 37°54' W 122°22'0 0.0
2017-Nov-10 08:00N 37°54' W 122°22'0 0.0
2017-Nov-10 07:30N 37°54' W 122°22'0 0.0
2017-Nov-10 07:00N 37°54' W 122°22'0 0.0
2017-Nov-10 06:30N 37°54' W 122°22'0 0.0
2017-Nov-10 06:00N 37°54' W 122°22'0 0.0
2017-Nov-10 05:24N 37°54' W 122°22'0 0.0
2017-Nov-10 04:45N 37°54' W 122°22'0 0.0
2017-Nov-10 04:27N 37°54' W 122°22'0 0.0
2017-Nov-10 03:57N 37°54' W 122°22'0 0.0
2017-Nov-10 03:27N 37°54' W 122°22'0 0.0
2017-Nov-10 02:57N 37°54' W 122°22'0 0.0
2017-Nov-10 02:30N 37°54' W 122°22'0 0.0
2017-Nov-10 01:57N 37°54' W 122°22'0 0.0
2017-Nov-10 01:30N 37°54' W 122°22'0 0.0
2017-Nov-10 01:00N 37°54' W 122°22'0 0.0
2017-Nov-10 00:24N 37°54' W 122°22'0 0.0
2017-Nov-10 00:00N 37°54' W 122°22'0 0.0
2017-Nov-09 23:30N 37°54' W 122°22'0 0.0
2017-Nov-09 22:57N 37°54' W 122°22'0 0.0
2017-Nov-09 22:30N 37°54' W 122°22'0 0.0
2017-Nov-09 21:57N 37°54' W 122°22'0 0.0
2017-Nov-09 21:27N 37°54' W 122°22'0 0.0
2017-Nov-09 21:00N 37°54' W 122°22'0 0.0
2017-Nov-09 20:30N 37°54' W 122°22'0 0.3
2017-Nov-09 20:00N 37°54' W 122°22'  
Track history (hours):
 
Tides and Currents Weather Stations Pressure Air Temp Water Temp Dewpoint Dewpoint Depression Visibility Wind Speed Wind Dir Waves Ship Positions

Lynn Marie

Owner: Foss Maritime Co, Seattle, WA. More information available from US FCC via Universal Licensing System and Coast Guard Vessel Documentation Center.

Last reported at 2017-Nov-19 19:56 UTC. Time now 2017-Nov-19 20:04 UTC.
Position N 37°54' W 122°22'.

Length 30 m; draft 18 m.

Type: Tug. MMSI: 366919770.

Date/timePositionNaut miles runAvg speedWind from/ knotsBaromVisibWave heightAir tempDewpointWater temp
2017-Nov-19 19:56N 37°54' W 122°22'0 0.0
2017-Nov-19 19:29N 37°54' W 122°22'1 3.0
2017-Nov-19 19:00N 37°54' W 122°24'1 1.7
2017-Nov-19 18:26N 37°55' W 122°25'0 0.0
2017-Nov-19 17:59N 37°55' W 122°25'0 0.3
2017-Nov-19 17:30N 37°55' W 122°25'2 3.9
2017-Nov-19 17:00N 37°54' W 122°22'1 2.0
2017-Nov-19 16:30N 37°55' W 122°22'1 2.4
2017-Nov-19 16:00N 37°54' W 122°23'3 5.2
2017-Nov-19 15:30N 37°52' W 122°24'4 8.3
2017-Nov-19 15:01N 37°48' W 122°21'1 2.2
2017-Nov-19 14:31N 37°48' W 122°20'1 1.0
2017-Nov-19 14:00N 37°48' W 122°19'0 0.3
2017-Nov-19 13:30N 37°48' W 122°19'0 0.2
2017-Nov-19 13:00N 37°48' W 122°19'1 1.7
2017-Nov-19 12:31N 37°48' W 122°20'2 3.8
2017-Nov-19 12:00N 37°48' W 122°22'3 6.7
2017-Nov-19 11:31N 37°51' W 122°24'3 6.3
2017-Nov-19 11:00N 37°54' W 122°24'1 1.9
2017-Nov-19 10:29N 37°54' W 122°22'0 0.0
2017-Nov-19 09:59N 37°54' W 122°22'0 0.0
2017-Nov-19 09:29N 37°54' W 122°22'0 0.0
2017-Nov-19 08:59N 37°54' W 122°22'0 0.0
2017-Nov-19 08:29N 37°54' W 122°22'0 0.0
2017-Nov-19 07:56N 37°54' W 122°22'0 0.0
2017-Nov-19 07:20N 37°54' W 122°22'0 0.0
2017-Nov-19 06:56N 37°54' W 122°22'0 0.0
2017-Nov-19 06:29N 37°54' W 122°22'0 0.0
2017-Nov-19 05:59N 37°54' W 122°22'0 0.0
2017-Nov-19 05:29N 37°54' W 122°22'0 0.0
2017-Nov-19 04:38N 37°54' W 122°22'0 0.0
2017-Nov-19 04:20N 37°54' W 122°22'0 0.0
2017-Nov-19 03:59N 37°54' W 122°22'0 0.0
2017-Nov-19 03:30N 37°54' W 122°22'2 4.6
2017-Nov-19 03:01N 37°53' W 122°24'510.0
2017-Nov-19 02:31N 37°48' W 122°21'0 0.9
2017-Nov-19 02:01N 37°49' W 122°20'0 0.5
2017-Nov-19 01:31N 37°49' W 122°20'2 4.2
2017-Nov-19 01:00N 37°49' W 122°23'1 2.0
2017-Nov-19 00:30N 37°49' W 122°22'0 0.1
2017-Nov-19 00:00N 37°49' W 122°22'0 0.1
2017-Nov-18 23:30N 37°49' W 122°22'0 0.1
2017-Nov-18 23:00N 37°49' W 122°22'0 0.0
2017-Nov-18 22:30N 37°49' W 122°22'0 0.0
2017-Nov-18 22:00N 37°49' W 122°22'0 0.0
2017-Nov-18 21:30N 37°49' W 122°22'0 0.0
2017-Nov-18 21:00N 37°49' W 122°22'0 0.0
2017-Nov-18 20:30N 37°49' W 122°22'0 0.0
2017-Nov-18 19:57N 37°49' W 122°22'0 0.0
2017-Nov-18 19:30N 37°49' W 122°22'0 0.4
2017-Nov-18 19:00N 37°49' W 122°22'510.2
2017-Nov-18 18:30N 37°54' W 122°25'2 3.6
2017-Nov-18 18:01N 37°56' W 122°25'0 0.8
2017-Nov-18 17:30N 37°55' W 122°24'0 0.1
2017-Nov-18 16:57N 37°55' W 122°25'1 2.5
2017-Nov-18 16:30N 37°54' W 122°25'4 9.0
2017-Nov-18 16:01N 37°50' W 122°22'4 7.8
2017-Nov-18 15:30N 37°48' W 122°19'0 0.3
2017-Nov-18 15:01N 37°48' W 122°19'2 4.9
2017-Nov-18 14:31N 37°48' W 122°22'1 2.6
2017-Nov-18 14:00N 37°49' W 122°23'5 9.9
2017-Nov-18 13:31N 37°54' W 122°25'2 4.2
2017-Nov-18 13:00N 37°54' W 122°22'0 0.0
2017-Nov-18 12:30N 37°54' W 122°22'0 0.0
2017-Nov-18 12:00N 37°54' W 122°22'0 0.0
2017-Nov-18 11:30N 37°54' W 122°22'0 0.0
2017-Nov-18 11:00N 37°54' W 122°22'0 0.0
2017-Nov-18 10:30N 37°54' W 122°22'0 0.0
2017-Nov-18 10:00N 37°54' W 122°22'0 0.0
2017-Nov-18 09:24N 37°54' W 122°22'0 0.0
2017-Nov-18 09:00N 37°54' W 122°22'0 0.0
2017-Nov-18 08:27N 37°54' W 122°22'0 0.0
2017-Nov-18 08:00N 37°54' W 122°22'0 0.0
2017-Nov-18 07:30N 37°54' W 122°22'0 0.0
2017-Nov-18 07:00N 37°54' W 122°22'0 0.0
2017-Nov-18 06:30N 37°54' W 122°22'0 0.0
2017-Nov-18 06:00N 37°54' W 122°22'0 0.0
2017-Nov-18 05:27N 37°54' W 122°22'0 0.0
2017-Nov-18 05:00N 37°54' W 122°22'0 0.0
2017-Nov-18 04:30N 37°54' W 122°22'0 0.0
2017-Nov-18 03:57N 37°54' W 122°22'0 0.0
2017-Nov-18 03:30N 37°54' W 122°22'0 0.0
2017-Nov-18 03:00N 37°54' W 122°22'0 0.0
2017-Nov-18 02:30N 37°54' W 122°22'0 0.0
2017-Nov-18 01:57N 37°54' W 122°22'0 0.0
2017-Nov-18 01:30N 37°54' W 122°22'0 0.0
2017-Nov-18 01:00N 37°54' W 122°22'0 0.0
2017-Nov-18 00:30N 37°54' W 122°22'0 0.0
2017-Nov-18 00:00N 37°54' W 122°22'0 0.0
2017-Nov-17 23:27N 37°54' W 122°22'0 0.0
2017-Nov-17 22:51N 37°54' W 122°22'0 0.0
2017-Nov-17 22:27N 37°54' W 122°22'0 0.0
2017-Nov-17 21:51N 37°54' W 122°22'0 0.0
2017-Nov-17 21:30N 37°54' W 122°22'0 0.0
2017-Nov-17 21:00N 37°54' W 122°22'0 0.0
2017-Nov-17 20:30N 37°54' W 122°22'0 0.0
2017-Nov-17 20:00N 37°54' W 122°22'0 0.0
2017-Nov-17 19:27N 37°54' W 122°22'0 0.0
2017-Nov-17 19:00N 37°54' W 122°22'0 0.0
2017-Nov-17 18:30N 37°54' W 122°22'0 0.0
2017-Nov-17 17:57N 37°54' W 122°22'0 0.0
2017-Nov-17 17:30N 37°54' W 122°22'0 0.0
2017-Nov-17 17:00N 37°54' W 122°22'1 1.1
2017-Nov-17 16:30N 37°54' W 122°23'2 4.0
2017-Nov-17 16:01N 37°56' W 122°25'0 0.1
2017-Nov-17 15:30N 37°56' W 122°25'1 2.7
2017-Nov-17 15:00N 37°54' W 122°25'2 3.9
2017-Nov-17 14:31N 37°52' W 122°24'2 4.0
2017-Nov-17 14:00N 37°54' W 122°25'2 3.9
2017-Nov-17 13:27N 37°54' W 122°22'0 0.0
2017-Nov-17 12:57N 37°54' W 122°22'0 0.0
2017-Nov-17 12:30N 37°54' W 122°22'0 0.0
2017-Nov-17 12:00N 37°54' W 122°22'0 0.5
2017-Nov-17 11:30N 37°54' W 122°23'4 7.5
2017-Nov-17 11:00N 37°52' W 122°27'4 7.6
2017-Nov-17 10:30N 37°49' W 122°29'1 2.6
2017-Nov-17 10:00N 37°49' W 122°31'3 5.2
2017-Nov-17 09:30N 37°49' W 122°28'3 6.7
2017-Nov-17 09:00N 37°52' W 122°25'2 4.4
2017-Nov-17 08:30N 37°54' W 122°26'1 1.6
2017-Nov-17 08:00N 37°55' W 122°25'1 1.3
2017-Nov-17 07:21N 37°55' W 122°25'0 0.7
2017-Nov-17 07:00N 37°55' W 122°25'2 4.0
2017-Nov-17 06:28N 37°54' W 122°22'0 0.0
2017-Nov-17 05:58N 37°54' W 122°22'0 0.0
2017-Nov-17 05:28N 37°54' W 122°22'0 0.0
2017-Nov-17 04:58N 37°54' W 122°22'0 0.0
2017-Nov-17 04:28N 37°54' W 122°22'0 0.0
2017-Nov-17 03:49N 37°54' W 122°22'0 0.0
2017-Nov-17 03:19N 37°54' W 122°22'0 0.0
2017-Nov-17 02:55N 37°54' W 122°22'0 0.0
2017-Nov-17 02:25N 37°54' W 122°22'0 0.0
2017-Nov-17 01:58N 37°54' W 122°22'0 0.0
2017-Nov-17 01:25N 37°54' W 122°22'0 0.9
2017-Nov-17 01:00N 37°54' W 122°23'2 3.4
2017-Nov-17 00:30N 37°55' W 122°25'0 0.1
2017-Nov-17 00:00N 37°55' W 122°24'0 0.1
2017-Nov-16 23:30N 37°55' W 122°25'0 0.1
2017-Nov-16 23:00N 37°55' W 122°24'0 0.1
2017-Nov-16 22:27N 37°55' W 122°25'0 0.1
2017-Nov-16 22:00N 37°55' W 122°24'0 0.1
2017-Nov-16 21:30N 37°55' W 122°25'0 0.1
2017-Nov-16 20:57N 37°55' W 122°24'0 0.1
2017-Nov-16 20:30N 37°55' W 122°25'0 0.0
2017-Nov-16 19:58N 37°55' W 122°25'1 2.0
2017-Nov-16 19:30N 37°55' W 122°25'1 1.1
2017-Nov-16 18:37N 37°56' W 122°25'0 3.9
2017-Nov-16 18:30N 37°55' W 122°24'0 0.3
2017-Nov-16 17:58N 37°55' W 122°25'0 0.0
2017-Nov-16 17:25N 37°55' W 122°25'0 0.0
2017-Nov-16 16:58N 37°55' W 122°25'0 0.0
2017-Nov-16 16:16N 37°55' W 122°25'0 0.0
2017-Nov-16 15:58N 37°55' W 122°25'0 0.0
2017-Nov-16 15:22N 37°55' W 122°25'0 0.0
2017-Nov-16 14:43N 37°55' W 122°25'0 0.0
2017-Nov-16 14:25N 37°55' W 122°25'0 0.0
2017-Nov-16 13:52N 37°55' W 122°25'0 0.0
2017-Nov-16 13:28N 37°55' W 122°25'0 0.0
2017-Nov-16 12:58N 37°55' W 122°25'1 1.4
2017-Nov-16 12:30N 37°55' W 122°24'2 3.1
2017-Nov-16 11:56N 37°54' W 122°22'0 0.0
2017-Nov-16 11:29N 37°54' W 122°22'0 0.0
2017-Nov-16 10:56N 37°54' W 122°22'0 0.0
2017-Nov-16 10:26N 37°54' W 122°22'0 0.0
2017-Nov-16 09:59N 37°54' W 122°22'0 0.0
2017-Nov-16 09:30N 37°54' W 122°22'0 0.0
2017-Nov-16 08:56N 37°54' W 122°22'0 0.0
2017-Nov-16 08:27N 37°54' W 122°22'0 0.0
2017-Nov-16 07:59N 37°54' W 122°22'0 0.0
2017-Nov-16 07:30N 37°54' W 122°22'2 4.0
2017-Nov-16 07:00N 37°55' W 122°25'0 0.0
2017-Nov-16 06:25N 37°55' W 122°25'0 0.0
2017-Nov-16 05:55N 37°55' W 122°25'0 0.0
2017-Nov-16 05:25N 37°55' W 122°25'0 0.0
2017-Nov-16 04:55N 37°55' W 122°25'0 0.0
2017-Nov-16 04:25N 37°55' W 122°25'0 0.0
2017-Nov-16 03:58N 37°55' W 122°25'0 0.0
2017-Nov-16 03:25N 37°55' W 122°25'0 0.0
2017-Nov-16 02:58N 37°55' W 122°25'0 0.0
2017-Nov-16 02:19N 37°55' W 122°25'0 0.0
2017-Nov-16 01:58N 37°55' W 122°25'0 0.0
2017-Nov-16 01:28N 37°55' W 122°25'0 0.0
2017-Nov-16 00:58N 37°55' W 122°25'0 0.0
2017-Nov-16 00:25N 37°55' W 122°25'0 0.0
2017-Nov-15 23:58N 37°55' W 122°25'0 0.0
2017-Nov-15 23:28N 37°55' W 122°25'0 0.0
2017-Nov-15 22:58N 37°55' W 122°25'0 0.0
2017-Nov-15 22:30N 37°55' W 122°25'0 0.7
2017-Nov-15 21:50N 37°56' W 122°25'0 0.0
2017-Nov-15 21:30N 37°56' W 122°25'1 2.7
2017-Nov-15 21:00N 37°54' W 122°25'2 3.3
2017-Nov-15 20:30N 37°53' W 122°25'3 5.0
2017-Nov-15 19:58N 37°55' W 122°25'0 0.2
2017-Nov-15 19:30N 37°55' W 122°25'0 0.2
2017-Nov-15 18:59N 37°55' W 122°25'0 0.0
2017-Nov-15 18:30N 37°55' W 122°25'0 0.2
2017-Nov-15 18:00N 37°55' W 122°25'0 0.5
2017-Nov-15 17:27N 37°56' W 122°25'0 0.4
2017-Nov-15 17:00N 37°56' W 122°25'0 0.1
2017-Nov-15 16:30N 37°56' W 122°25'0 0.9
2017-Nov-15 16:01N 37°55' W 122°25'0 0.0
2017-Nov-15 15:31N 37°55' W 122°25'0 0.0
2017-Nov-15 14:43N 37°55' W 122°25'0 0.0
2017-Nov-15 14:25N 37°55' W 122°25'0 0.0
2017-Nov-15 13:16N 37°55' W 122°25'0 0.0
2017-Nov-15 13:01N 37°55' W 122°25'0 0.0
2017-Nov-15 12:22N 37°55' W 122°25'0 0.0
2017-Nov-15 11:52N 37°55' W 122°25'0 0.0
2017-Nov-15 11:28N 37°55' W 122°25'0 0.0
2017-Nov-15 10:49N 37°55' W 122°25'1 3.6
2017-Nov-15 10:30N 37°54' W 122°24'1 2.1
2017-Nov-15 10:00N 37°54' W 122°22'0 0.0
2017-Nov-15 09:24N 37°54' W 122°22'0 0.0
2017-Nov-15 09:00N 37°54' W 122°22'0 0.0
2017-Nov-15 08:30N 37°54' W 122°22'0 0.0
2017-Nov-15 08:00N 37°54' W 122°22'0 0.0
2017-Nov-15 07:30N 37°54' W 122°22'0 0.0
2017-Nov-15 07:00N 37°54' W 122°22'0 0.0
2017-Nov-15 06:30N 37°54' W 122°22'0 0.1
2017-Nov-15 06:00N 37°54' W 122°22'2 2.8
2017-Nov-15 05:17N 37°55' W 122°25'0 0.0
2017-Nov-15 04:59N 37°55' W 122°25'0 0.0
2017-Nov-15 04:26N 37°55' W 122°25'0 0.0
2017-Nov-15 03:47N 37°55' W 122°25'0 0.0
2017-Nov-15 03:23N 37°55' W 122°25'0 0.0
2017-Nov-15 02:59N 37°55' W 122°25'0 0.0
2017-Nov-15 02:29N 37°55' W 122°25'0 0.0
2017-Nov-15 01:39N 37°55' W 122°25'0 1.9
2017-Nov-15 01:30N 37°55' W 122°25'5 9.3
2017-Nov-15 01:00N 37°51' W 122°23'4 8.5
2017-Nov-15 00:30N 37°48' W 122°19'0 0.0
2017-Nov-15 00:00N 37°48' W 122°19'1 2.5
2017-Nov-14 23:30N 37°48' W 122°17'0 1.0
2017-Nov-14 23:00N 37°48' W 122°18'2 3.5
2017-Nov-14 22:30N 37°48' W 122°20'2 5.0
2017-Nov-14 22:00N 37°49' W 122°23'4 7.3
2017-Nov-14 21:30N 37°53' W 122°25'3 5.1
2017-Nov-14 21:00N 37°54' W 122°22'0 0.0
2017-Nov-14 20:30N 37°54' W 122°22'0 0.0
2017-Nov-14 20:00N 37°54' W 122°22'0 0.1
2017-Nov-14 19:28N 37°54' W 122°22'0 0.1
2017-Nov-14 18:55N 37°54' W 122°22'2 5.1
2017-Nov-14 18:30N 37°55' W 122°25'0 0.5
2017-Nov-14 18:00N 37°55' W 122°25'0 0.5
2017-Nov-14 17:30N 37°55' W 122°25'2 4.1
2017-Nov-14 17:00N 37°54' W 122°23'1 1.9
2017-Nov-14 16:30N 37°55' W 122°22'0 0.0
2017-Nov-14 16:00N 37°55' W 122°22'0 0.4
2017-Nov-14 15:30N 37°55' W 122°22'0 0.0
2017-Nov-14 15:00N 37°55' W 122°22'1 1.1
2017-Nov-14 14:30N 37°54' W 122°22'0 0.9
2017-Nov-14 14:00N 37°54' W 122°22'0 0.0
2017-Nov-14 13:30N 37°54' W 122°22'0 0.0
2017-Nov-14 13:00N 37°54' W 122°22'0 0.0
2017-Nov-14 12:30N 37°54' W 122°22'0 0.0
2017-Nov-14 12:00N 37°54' W 122°22'0 0.0
2017-Nov-14 11:31N 37°54' W 122°22'0 0.0
2017-Nov-14 11:01N 37°54' W 122°22'0 0.0
2017-Nov-14 10:30N 37°54' W 122°22'0 0.0
2017-Nov-14 10:00N 37°54' W 122°22'0 0.0
2017-Nov-14 09:31N 37°54' W 122°22'0 0.0
2017-Nov-14 09:00N 37°54' W 122°22'0 0.0
2017-Nov-14 08:30N 37°54' W 122°22'0 0.0
2017-Nov-14 08:00N 37°54' W 122°22'0 0.0
2017-Nov-14 07:30N 37°54' W 122°22'0 0.0
2017-Nov-14 07:00N 37°54' W 122°22'0 0.0
2017-Nov-14 06:30N 37°54' W 122°22'0 0.0
2017-Nov-14 06:00N 37°54' W 122°22'0 0.0
2017-Nov-14 05:30N 37°54' W 122°22'0 0.0
2017-Nov-14 05:01N 37°54' W 122°22'0 0.0
2017-Nov-14 04:30N 37°54' W 122°22'0 0.0
2017-Nov-14 04:00N 37°54' W 122°22'0 0.0
2017-Nov-14 03:31N 37°54' W 122°22'0 0.0
2017-Nov-14 03:00N 37°54' W 122°22'0 0.0
2017-Nov-14 02:30N 37°54' W 122°22'0 0.0
2017-Nov-14 02:00N 37°54' W 122°22'0 0.0
2017-Nov-14 01:30N 37°54' W 122°22'0 0.0
2017-Nov-14 01:00N 37°54' W 122°22'0 0.0
2017-Nov-14 00:30N 37°54' W 122°22'0 0.0
2017-Nov-14 00:00N 37°54' W 122°22'0 0.0
2017-Nov-13 23:30N 37°54' W 122°22'0 0.0
2017-Nov-13 23:00N 37°54' W 122°22'0 0.0
2017-Nov-13 22:30N 37°54' W 122°22'0 0.0
2017-Nov-13 22:00N 37°54' W 122°22'8 0.4
2017-Nov-13 02:01N 37°48' W 122°17'1 2.4
2017-Nov-13 01:31N 37°48' W 122°19'0 0.9
2017-Nov-13 01:00N 37°48' W 122°19'0 0.1
2017-Nov-13 00:30N 37°48' W 122°19'2 3.0
2017-Nov-13 00:01N 37°48' W 122°18'1 2.0
2017-Nov-12 23:30N 37°48' W 122°19'3 5.9
2017-Nov-12 23:00N 37°48' W 122°22'1 2.3
2017-Nov-12 22:30N 37°49' W 122°22'0 0.0
2017-Nov-12 22:00N 37°49' W 122°22'3 5.3
2017-Nov-12 21:30N 37°51' W 122°24'3 6.0
2017-Nov-12 21:00N 37°54' W 122°23'1 0.9
2017-Nov-12 20:25N 37°54' W 122°22'0 0.0
2017-Nov-12 19:58N 37°54' W 122°22'0 0.0
2017-Nov-12 19:25N 37°54' W 122°22'0 0.0
2017-Nov-12 18:58N 37°54' W 122°22'0 0.0
2017-Nov-12 18:28N 37°54' W 122°22'0 0.0
2017-Nov-12 17:55N 37°54' W 122°22'0 0.0
2017-Nov-12 17:28N 37°54' W 122°22'0 0.0
2017-Nov-12 16:58N 37°54' W 122°22'0 0.0
2017-Nov-12 16:28N 37°54' W 122°22'0 0.0
2017-Nov-12 15:58N 37°54' W 122°22'0 0.0
2017-Nov-12 15:25N 37°54' W 122°22'0 0.0
2017-Nov-12 14:55N 37°54' W 122°22'0 0.0
2017-Nov-12 14:28N 37°54' W 122°22'0 0.0
2017-Nov-12 13:58N 37°54' W 122°22'0 0.0
2017-Nov-12 13:28N 37°54' W 122°22'0 0.0
2017-Nov-12 12:58N 37°54' W 122°22'0 0.0
2017-Nov-12 12:28N 37°54' W 122°22'0 0.3
2017-Nov-12 12:00N 37°54' W 122°23'2 4.7
2017-Nov-12 11:29N 37°56' W 122°25'0 0.2
2017-Nov-12 11:00N 37°55' W 122°25'0 0.9
2017-Nov-12 10:30N 37°55' W 122°25'2 3.9
2017-Nov-12 09:59N 37°54' W 122°22'0 0.0
2017-Nov-12 09:27N 37°54' W 122°22'0 0.0
2017-Nov-12 08:56N 37°54' W 122°22'0 0.0
2017-Nov-12 08:29N 37°54' W 122°22'0 0.0
2017-Nov-12 07:57N 37°54' W 122°22'0 0.0
2017-Nov-12 07:29N 37°54' W 122°22'0 0.0
2017-Nov-12 06:57N 37°54' W 122°22'0 0.0
2017-Nov-12 06:29N 37°54' W 122°22'0 0.0
2017-Nov-12 05:59N 37°54' W 122°22'0 0.0
2017-Nov-12 05:29N 37°54' W 122°22'0 0.0
2017-Nov-12 04:59N 37°54' W 122°22'0 0.0
2017-Nov-12 04:21N 37°54' W 122°22'0 0.0
2017-Nov-12 03:59N 37°54' W 122°22'0 0.0
2017-Nov-12 03:26N 37°54' W 122°22'0 0.0
2017-Nov-12 02:56N 37°54' W 122°22'0 0.0
2017-Nov-12 02:26N 37°54' W 122°22'0 0.0
2017-Nov-12 01:59N 37°54' W 122°22'0 0.0
2017-Nov-12 01:14N 37°54' W 122°22'0 0.0
2017-Nov-12 00:59N 37°54' W 122°22'0 0.0
2017-Nov-12 00:29N 37°54' W 122°22'0 0.0
2017-Nov-11 23:59N 37°54' W 122°22'0 0.0
2017-Nov-11 23:26N 37°54' W 122°22'0 0.0
2017-Nov-11 22:59N 37°54' W 122°22'0 0.0
2017-Nov-11 22:29N 37°54' W 122°22'0 0.0
2017-Nov-11 21:56N 37°54' W 122°22'0 0.0
2017-Nov-11 21:26N 37°54' W 122°22'0 0.0
2017-Nov-11 20:56N 37°54' W 122°22'0 0.0
2017-Nov-11 20:26N 37°54' W 122°22'0 0.0
2017-Nov-11 19:53N 37°54' W 122°22'0 0.0
2017-Nov-11 19:29N 37°54' W 122°22'0 0.0
2017-Nov-11 18:56N 37°54' W 122°22'0 0.0
2017-Nov-11 18:26N 37°54' W 122°22'0 0.0
2017-Nov-11 17:56N 37°54' W 122°22'0 0.0
2017-Nov-11 17:26N 37°54' W 122°22'0 0.0
2017-Nov-11 16:57N 37°54' W 122°22'0 0.0
2017-Nov-11 16:23N 37°54' W 122°22'0 0.0
2017-Nov-11 15:56N 37°54' W 122°22'0 0.0
2017-Nov-11 15:29N 37°54' W 122°22'0 0.0
2017-Nov-11 14:59N 37°54' W 122°22'0 0.0
2017-Nov-11 14:29N 37°54' W 122°22'0 0.0
2017-Nov-11 13:56N 37°54' W 122°22'0 0.0
2017-Nov-11 13:29N 37°54' W 122°22'0 0.0
2017-Nov-11 12:56N 37°54' W 122°22'0 0.0
2017-Nov-11 12:29N 37°54' W 122°22'0 0.0
2017-Nov-11 11:59N 37°54' W 122°22'0 0.0
2017-Nov-11 11:27N 37°54' W 122°22'0 0.0
2017-Nov-11 10:57N 37°54' W 122°22'0 0.0
2017-Nov-11 10:27N 37°54' W 122°22'0 0.0
2017-Nov-11 09:59N 37°54' W 122°22'0 0.0
2017-Nov-11 09:29N 37°54' W 122°22'0 0.0
2017-Nov-11 09:00N 37°54' W 122°22'0 0.0
2017-Nov-11 08:30N 37°54' W 122°22'0 0.0
2017-Nov-11 07:56N 37°54' W 122°22'0 0.0
2017-Nov-11 07:29N 37°54' W 122°22'0 0.0
2017-Nov-11 06:59N 37°54' W 122°22'0 0.0
2017-Nov-11 06:29N 37°54' W 122°22'0 0.0
2017-Nov-11 05:59N 37°54' W 122°22'0 0.0
2017-Nov-11 05:26N 37°54' W 122°22'0 0.0
2017-Nov-11 04:56N 37°54' W 122°22'0 0.0
2017-Nov-11 04:26N 37°54' W 122°22'0 0.0
2017-Nov-11 03:56N 37°54' W 122°22'0 0.0
2017-Nov-11 03:29N 37°54' W 122°22'0 0.0
2017-Nov-11 02:56N 37°54' W 122°22'0 0.0
2017-Nov-11 02:17N 37°54' W 122°22'0 0.0
2017-Nov-11 01:53N 37°54' W 122°22'0 0.0
2017-Nov-11 01:29N 37°54' W 122°22'0 0.0
2017-Nov-11 00:59N 37°54' W 122°22'2 4.5
2017-Nov-11 00:30N 37°55' W 122°25'3 5.3
2017-Nov-11 00:00N 37°54' W 122°22'1 2.0
2017-Nov-10 23:30N 37°55' W 122°22'0 0.0
2017-Nov-10 23:01N 37°55' W 122°22'1 1.7
2017-Nov-10 22:30N 37°54' W 122°22'0 0.0
2017-Nov-10 21:57N 37°54' W 122°22'0 0.0
2017-Nov-10 21:30N 37°54' W 122°22'0 0.0
2017-Nov-10 20:57N 37°54' W 122°22'0 0.0
2017-Nov-10 20:24N 37°54' W 122°22'0 0.0
2017-Nov-10 19:54N 37°54' W 122°22'0 0.0
2017-Nov-10 19:27N 37°54' W 122°22'0 0.0
2017-Nov-10 19:00N 37°54' W 122°22'0 0.0
2017-Nov-10 18:30N 37°54' W 122°22'0 0.0
2017-Nov-10 17:57N 37°54' W 122°22'0 0.0
2017-Nov-10 17:30N 37°54' W 122°22'0 0.0
2017-Nov-10 16:57N 37°54' W 122°22'0 0.0
2017-Nov-10 16:30N 37°54' W 122°22'0 0.0
2017-Nov-10 16:00N 37°54' W 122°22'0 0.0
2017-Nov-10 15:27N 37°54' W 122°22'0 0.0
2017-Nov-10 15:00N 37°54' W 122°22'0 0.0
2017-Nov-10 14:30N 37°54' W 122°22'0 0.0
2017-Nov-10 14:00N 37°54' W 122°22'0 0.0
2017-Nov-10 13:21N 37°54' W 122°22'0 0.0
2017-Nov-10 12:57N 37°54' W 122°22'0 0.0
2017-Nov-10 12:27N 37°54' W 122°22'0 0.0
2017-Nov-10 12:00N 37°54' W 122°22'0 0.0
2017-Nov-10 11:27N 37°54' W 122°22'0 0.0
2017-Nov-10 11:00N 37°54' W 122°22'0 0.0
2017-Nov-10 10:21N 37°54' W 122°22'0 0.0
2017-Nov-10 09:45N 37°54' W 122°22'0 0.0
2017-Nov-10 09:27N 37°54' W 122°22'0 0.0
2017-Nov-10 08:54N 37°54' W 122°22'0 0.0
2017-Nov-10 08:03N 37°54' W 122°22'0 0.0
2017-Nov-10 08:00N 37°54' W 122°22'0 0.0
2017-Nov-10 07:30N 37°54' W 122°22'0 0.0
2017-Nov-10 07:00N 37°54' W 122°22'0 0.0
2017-Nov-10 06:30N 37°54' W 122°22'0 0.0
2017-Nov-10 06:00N 37°54' W 122°22'0 0.0
2017-Nov-10 05:24N 37°54' W 122°22'0 0.0
2017-Nov-10 04:45N 37°54' W 122°22'0 0.0
2017-Nov-10 04:27N 37°54' W 122°22'0 0.0
2017-Nov-10 03:57N 37°54' W 122°22'0 0.0
2017-Nov-10 03:27N 37°54' W 122°22'0 0.0
2017-Nov-10 02:57N 37°54' W 122°22'0 0.0
2017-Nov-10 02:30N 37°54' W 122°22'0 0.0
2017-Nov-10 01:57N 37°54' W 122°22'0 0.0
2017-Nov-10 01:30N 37°54' W 122°22'0 0.0
2017-Nov-10 01:00N 37°54' W 122°22'0 0.0
2017-Nov-10 00:24N 37°54' W 122°22'0 0.0
2017-Nov-10 00:00N 37°54' W 122°22'0 0.0
2017-Nov-09 23:30N 37°54' W 122°22'0 0.0
2017-Nov-09 22:57N 37°54' W 122°22'0 0.0
2017-Nov-09 22:30N 37°54' W 122°22'0 0.0
2017-Nov-09 21:57N 37°54' W 122°22'0 0.0
2017-Nov-09 21:27N 37°54' W 122°22'0 0.0
2017-Nov-09 21:00N 37°54' W 122°22'0 0.0
2017-Nov-09 20:30N 37°54' W 122°22'0 0.3
2017-Nov-09 20:00N 37°54' W 122°22'  

Dump ship's entire track history